sensor_id;sensor_type;location;lat;lon;timestamp;P1;durP1;ratioP1;P2;durP2;ratioP2
33954;SDS011;20233;50.804;7.126;2023-10-09T00:01:24;20.65;;;12.13;;
33954;SDS011;20233;50.804;7.126;2023-10-09T00:03:53;26.85;;;12.70;;
33954;SDS011;20233;50.804;7.126;2023-10-09T00:06:21;22.45;;;12.20;;
33954;SDS011;20233;50.804;7.126;2023-10-09T00:09:02;21.40;;;12.13;;
33954;SDS011;20233;50.804;7.126;2023-10-09T00:11:48;21.02;;;10.95;;
33954;SDS011;20233;50.804;7.126;2023-10-09T00:14:19;25.90;;;11.50;;
33954;SDS011;20233;50.804;7.126;2023-10-09T00:16:44;17.42;;;11.48;;
33954;SDS011;20233;50.804;7.126;2023-10-09T00:19:21;21.23;;;11.30;;
33954;SDS011;20233;50.804;7.126;2023-10-09T00:21:56;21.00;;;11.77;;
33954;SDS011;20233;50.804;7.126;2023-10-09T00:24:23;19.48;;;11.63;;
33954;SDS011;20233;50.804;7.126;2023-10-09T00:26:49;18.52;;;11.73;;
33954;SDS011;20233;50.804;7.126;2023-10-09T00:29:16;21.80;;;11.07;;
33954;SDS011;20233;50.804;7.126;2023-10-09T00:31:49;22.35;;;10.95;;
33954;SDS011;20233;50.804;7.126;2023-10-09T00:34:17;19.50;;;11.07;;
33954;SDS011;20233;50.804;7.126;2023-10-09T00:36:47;24.35;;;11.43;;
33954;SDS011;20233;50.804;7.126;2023-10-09T00:39:15;19.83;;;11.55;;
33954;SDS011;20233;50.804;7.126;2023-10-09T00:42:05;21.52;;;11.95;;
33954;SDS011;20233;50.804;7.126;2023-10-09T00:44:32;20.80;;;11.00;;
33954;SDS011;20233;50.804;7.126;2023-10-09T00:47:11;19.35;;;11.38;;
33954;SDS011;20233;50.804;7.126;2023-10-09T00:49:50;24.40;;;11.40;;
33954;SDS011;20233;50.804;7.126;2023-10-09T00:52:28;20.13;;;12.18;;
33954;SDS011;20233;50.804;7.126;2023-10-09T00:55:08;25.08;;;11.60;;
33954;SDS011;20233;50.804;7.126;2023-10-09T00:57:42;20.42;;;10.95;;
33954;SDS011;20233;50.804;7.126;2023-10-09T01:00:17;21.45;;;11.15;;
33954;SDS011;20233;50.804;7.126;2023-10-09T01:02:58;22.67;;;11.60;;
33954;SDS011;20233;50.804;7.126;2023-10-09T01:05:42;20.88;;;11.40;;
33954;SDS011;20233;50.804;7.126;2023-10-09T01:08:40;19.08;;;11.30;;
33954;SDS011;20233;50.804;7.126;2023-10-09T01:11:06;21.92;;;10.82;;
33954;SDS011;20233;50.804;7.126;2023-10-09T01:13:41;22.23;;;11.73;;
33954;SDS011;20233;50.804;7.126;2023-10-09T01:16:24;17.77;;;10.80;;
33954;SDS011;20233;50.804;7.126;2023-10-09T01:18:51;22.40;;;11.40;;
33954;SDS011;20233;50.804;7.126;2023-10-09T01:21:18;19.80;;;10.57;;
33954;SDS011;20233;50.804;7.126;2023-10-09T01:23:49;16.60;;;10.90;;
33954;SDS011;20233;50.804;7.126;2023-10-09T01:26:40;16.63;;;10.52;;
33954;SDS011;20233;50.804;7.126;2023-10-09T01:29:19;19.27;;;10.70;;
33954;SDS011;20233;50.804;7.126;2023-10-09T01:31:47;18.27;;;10.85;;
33954;SDS011;20233;50.804;7.126;2023-10-09T01:34:23;23.33;;;10.32;;
33954;SDS011;20233;50.804;7.126;2023-10-09T01:36:52;21.15;;;10.98;;
33954;SDS011;20233;50.804;7.126;2023-10-09T01:39:25;17.45;;;10.70;;
33954;SDS011;20233;50.804;7.126;2023-10-09T01:41:52;16.60;;;9.88;;
33954;SDS011;20233;50.804;7.126;2023-10-09T01:44:30;16.80;;;10.40;;
33954;SDS011;20233;50.804;7.126;2023-10-09T01:47:00;18.95;;;10.13;;
33954;SDS011;20233;50.804;7.126;2023-10-09T01:49:32;17.73;;;9.82;;
33954;SDS011;20233;50.804;7.126;2023-10-09T01:52:02;16.05;;;9.73;;
33954;SDS011;20233;50.804;7.126;2023-10-09T01:54:41;17.83;;;10.05;;
33954;SDS011;20233;50.804;7.126;2023-10-09T01:57:12;19.67;;;10.15;;
33954;SDS011;20233;50.804;7.126;2023-10-09T01:59:39;13.63;;;9.75;;
33954;SDS011;20233;50.804;7.126;2023-10-09T02:02:15;21.08;;;11.32;;
33954;SDS011;20233;50.804;7.126;2023-10-09T02:04:51;16.70;;;9.02;;
33954;SDS011;20233;50.804;7.126;2023-10-09T02:07:36;18.38;;;9.63;;
33954;SDS011;20233;50.804;7.126;2023-10-09T02:10:06;17.30;;;9.82;;
33954;SDS011;20233;50.804;7.126;2023-10-09T02:12:46;21.27;;;9.88;;
33954;SDS011;20233;50.804;7.126;2023-10-09T02:15:31;19.50;;;9.65;;
33954;SDS011;20233;50.804;7.126;2023-10-09T02:18:07;14.80;;;9.80;;
33954;SDS011;20233;50.804;7.126;2023-10-09T02:21:06;16.90;;;9.63;;
33954;SDS011;20233;50.804;7.126;2023-10-09T02:23:33;15.38;;;9.23;;
33954;SDS011;20233;50.804;7.126;2023-10-09T02:26:05;16.52;;;9.82;;
33954;SDS011;20233;50.804;7.126;2023-10-09T02:28:33;25.38;;;10.40;;
33954;SDS011;20233;50.804;7.126;2023-10-09T02:31:00;23.83;;;10.18;;
33954;SDS011;20233;50.804;7.126;2023-10-09T02:33:46;17.55;;;10.00;;
33954;SDS011;20233;50.804;7.126;2023-10-09T02:36:13;17.33;;;8.77;;
33954;SDS011;20233;50.804;7.126;2023-10-09T02:38:38;15.48;;;9.52;;
33954;SDS011;20233;50.804;7.126;2023-10-09T02:41:06;17.65;;;10.60;;
33954;SDS011;20233;50.804;7.126;2023-10-09T02:43:32;13.63;;;9.57;;
33954;SDS011;20233;50.804;7.126;2023-10-09T02:46:00;15.82;;;9.70;;
33954;SDS011;20233;50.804;7.126;2023-10-09T02:48:38;17.25;;;9.15;;
33954;SDS011;20233;50.804;7.126;2023-10-09T02:51:07;14.38;;;9.02;;
33954;SDS011;20233;50.804;7.126;2023-10-09T02:53:40;18.50;;;10.10;;
33954;SDS011;20233;50.804;7.126;2023-10-09T02:56:05;18.35;;;10.18;;
33954;SDS011;20233;50.804;7.126;2023-10-09T02:58:37;15.88;;;9.60;;
33954;SDS011;20233;50.804;7.126;2023-10-09T03:01:08;13.45;;;9.18;;
33954;SDS011;20233;50.804;7.126;2023-10-09T03:03:41;17.02;;;9.25;;
33954;SDS011;20233;50.804;7.126;2023-10-09T03:06:14;16.63;;;9.57;;
33954;SDS011;20233;50.804;7.126;2023-10-09T03:08:50;16.40;;;10.20;;
33954;SDS011;20233;50.804;7.126;2023-10-09T03:11:15;15.77;;;9.40;;
33954;SDS011;20233;50.804;7.126;2023-10-09T03:13:42;14.65;;;9.10;;
33954;SDS011;20233;50.804;7.126;2023-10-09T03:16:12;14.63;;;8.30;;
33954;SDS011;20233;50.804;7.126;2023-10-09T03:18:43;13.15;;;8.80;;
33954;SDS011;20233;50.804;7.126;2023-10-09T03:21:11;17.63;;;9.57;;
33954;SDS011;20233;50.804;7.126;2023-10-09T03:23:39;14.70;;;9.10;;
33954;SDS011;20233;50.804;7.126;2023-10-09T03:26:05;14.75;;;8.98;;
33954;SDS011;20233;50.804;7.126;2023-10-09T03:28:30;13.80;;;8.20;;
33954;SDS011;20233;50.804;7.126;2023-10-09T03:30:56;18.45;;;8.88;;
33954;SDS011;20233;50.804;7.126;2023-10-09T03:33:24;16.42;;;8.80;;
33954;SDS011;20233;50.804;7.126;2023-10-09T03:35:50;17.67;;;9.15;;
33954;SDS011;20233;50.804;7.126;2023-10-09T03:38:15;16.88;;;8.55;;
33954;SDS011;20233;50.804;7.126;2023-10-09T03:40:43;15.02;;;8.85;;
33954;SDS011;20233;50.804;7.126;2023-10-09T03:43:13;12.43;;;8.65;;
33954;SDS011;20233;50.804;7.126;2023-10-09T03:45:39;15.68;;;8.65;;
33954;SDS011;20233;50.804;7.126;2023-10-09T03:48:11;13.63;;;8.52;;
33954;SDS011;20233;50.804;7.126;2023-10-09T03:50:47;16.05;;;9.15;;
33954;SDS011;20233;50.804;7.126;2023-10-09T03:53:14;13.77;;;8.23;;
33954;SDS011;20233;50.804;7.126;2023-10-09T03:55:40;15.38;;;8.57;;
33954;SDS011;20233;50.804;7.126;2023-10-09T03:58:07;12.25;;;8.30;;
33954;SDS011;20233;50.804;7.126;2023-10-09T04:00:36;12.63;;;8.13;;
33954;SDS011;20233;50.804;7.126;2023-10-09T04:03:11;17.00;;;8.95;;
33954;SDS011;20233;50.804;7.126;2023-10-09T04:05:39;14.75;;;8.63;;
33954;SDS011;20233;50.804;7.126;2023-10-09T04:08:09;13.43;;;7.55;;
33954;SDS011;20233;50.804;7.126;2023-10-09T04:10:44;15.00;;;8.90;;
33954;SDS011;20233;50.804;7.126;2023-10-09T04:13:17;13.25;;;8.55;;
33954;SDS011;20233;50.804;7.126;2023-10-09T04:15:48;13.90;;;7.60;;
33954;SDS011;20233;50.804;7.126;2023-10-09T04:18:15;12.50;;;7.53;;
33954;SDS011;20233;50.804;7.126;2023-10-09T04:20:41;15.40;;;7.20;;
33954;SDS011;20233;50.804;7.126;2023-10-09T04:23:33;11.38;;;7.70;;
33954;SDS011;20233;50.804;7.126;2023-10-09T04:26:21;13.63;;;7.80;;
33954;SDS011;20233;50.804;7.126;2023-10-09T04:28:50;12.60;;;7.97;;
33954;SDS011;20233;50.804;7.126;2023-10-09T04:31:18;16.48;;;7.78;;
33954;SDS011;20233;50.804;7.126;2023-10-09T04:33:45;11.00;;;7.25;;
33954;SDS011;20233;50.804;7.126;2023-10-09T04:36:19;14.95;;;8.00;;
33954;SDS011;20233;50.804;7.126;2023-10-09T04:38:44;11.50;;;7.13;;
33954;SDS011;20233;50.804;7.126;2023-10-09T04:41:30;13.43;;;7.97;;
33954;SDS011;20233;50.804;7.126;2023-10-09T04:44:17;13.50;;;7.82;;
33954;SDS011;20233;50.804;7.126;2023-10-09T04:46:43;12.55;;;7.65;;
33954;SDS011;20233;50.804;7.126;2023-10-09T04:49:12;15.63;;;7.70;;
33954;SDS011;20233;50.804;7.126;2023-10-09T04:51:55;11.95;;;7.13;;
33954;SDS011;20233;50.804;7.126;2023-10-09T04:54:33;14.27;;;8.40;;
33954;SDS011;20233;50.804;7.126;2023-10-09T04:59:38;12.60;;;6.93;;
33954;SDS011;20233;50.804;7.126;2023-10-09T05:02:12;11.93;;;7.18;;
33954;SDS011;20233;50.804;7.126;2023-10-09T05:04:44;9.77;;;7.32;;
33954;SDS011;20233;50.804;7.126;2023-10-09T05:07:12;14.13;;;7.30;;
33954;SDS011;20233;50.804;7.126;2023-10-09T05:10:10;14.02;;;8.10;;
33954;SDS011;20233;50.804;7.126;2023-10-09T05:12:42;14.45;;;7.53;;
33954;SDS011;20233;50.804;7.126;2023-10-09T05:15:21;13.27;;;7.10;;
33954;SDS011;20233;50.804;7.126;2023-10-09T05:17:54;13.10;;;7.55;;
33954;SDS011;20233;50.804;7.126;2023-10-09T05:20:22;11.55;;;6.63;;
33954;SDS011;20233;50.804;7.126;2023-10-09T05:22:48;11.52;;;7.13;;
33954;SDS011;20233;50.804;7.126;2023-10-09T05:25:24;12.02;;;7.35;;
33954;SDS011;20233;50.804;7.126;2023-10-09T05:28:18;11.18;;;6.32;;
33954;SDS011;20233;50.804;7.126;2023-10-09T05:30:51;14.63;;;7.07;;
33954;SDS011;20233;50.804;7.126;2023-10-09T05:33:27;12.68;;;7.28;;
33954;SDS011;20233;50.804;7.126;2023-10-09T05:35:54;13.13;;;6.95;;
33954;SDS011;20233;50.804;7.126;2023-10-09T05:38:38;13.55;;;7.28;;
33954;SDS011;20233;50.804;7.126;2023-10-09T05:41:11;11.68;;;6.32;;
33954;SDS011;20233;50.804;7.126;2023-10-09T05:43:58;14.48;;;7.45;;
33954;SDS011;20233;50.804;7.126;2023-10-09T05:46:42;12.70;;;7.10;;
33954;SDS011;20233;50.804;7.126;2023-10-09T05:49:33;13.02;;;6.95;;
33954;SDS011;20233;50.804;7.126;2023-10-09T05:52:11;11.30;;;7.20;;
33954;SDS011;20233;50.804;7.126;2023-10-09T05:54:56;12.25;;;7.10;;
33954;SDS011;20233;50.804;7.126;2023-10-09T05:57:40;9.80;;;6.82;;
33954;SDS011;20233;50.804;7.126;2023-10-09T06:00:21;12.52;;;7.25;;
33954;SDS011;20233;50.804;7.126;2023-10-09T06:03:08;11.80;;;6.82;;
33954;SDS011;20233;50.804;7.126;2023-10-09T06:08:19;11.73;;;7.30;;
33954;SDS011;20233;50.804;7.126;2023-10-09T06:11:04;12.75;;;8.00;;
33954;SDS011;20233;50.804;7.126;2023-10-09T06:13:48;15.15;;;8.07;;
33954;SDS011;20233;50.804;7.126;2023-10-09T06:16:27;13.02;;;8.18;;
33954;SDS011;20233;50.804;7.126;2023-10-09T06:19:12;11.27;;;7.53;;
33954;SDS011;20233;50.804;7.126;2023-10-09T06:21:45;13.02;;;6.90;;
33954;SDS011;20233;50.804;7.126;2023-10-09T06:24:17;12.93;;;8.85;;
33954;SDS011;20233;50.804;7.126;2023-10-09T06:26:43;14.88;;;8.60;;
33954;SDS011;20233;50.804;7.126;2023-10-09T06:29:36;13.20;;;8.85;;
33954;SDS011;20233;50.804;7.126;2023-10-09T06:32:14;13.95;;;8.68;;
33954;SDS011;20233;50.804;7.126;2023-10-09T06:34:46;17.33;;;7.68;;
33954;SDS011;20233;50.804;7.126;2023-10-09T06:37:17;15.00;;;7.50;;
33954;SDS011;20233;50.804;7.126;2023-10-09T06:39:59;13.60;;;8.88;;
33954;SDS011;20233;50.804;7.126;2023-10-09T06:42:54;14.88;;;7.45;;
33954;SDS011;20233;50.804;7.126;2023-10-09T06:45:20;15.02;;;7.88;;
33954;SDS011;20233;50.804;7.126;2023-10-09T06:47:46;17.77;;;8.07;;
33954;SDS011;20233;50.804;7.126;2023-10-09T06:50:34;13.32;;;7.97;;
33954;SDS011;20233;50.804;7.126;2023-10-09T06:53:18;17.55;;;7.60;;
33954;SDS011;20233;50.804;7.126;2023-10-09T06:55:44;12.23;;;7.50;;
33954;SDS011;20233;50.804;7.126;2023-10-09T06:58:22;12.57;;;7.68;;
33954;SDS011;20233;50.804;7.126;2023-10-09T07:00:50;14.80;;;7.85;;
33954;SDS011;20233;50.804;7.126;2023-10-09T07:03:34;18.00;;;8.00;;
33954;SDS011;20233;50.804;7.126;2023-10-09T07:06:06;17.33;;;7.82;;
33954;SDS011;20233;50.804;7.126;2023-10-09T07:08:49;13.30;;;7.80;;
33954;SDS011;20233;50.804;7.126;2023-10-09T07:11:36;15.75;;;7.63;;
33954;SDS011;20233;50.804;7.126;2023-10-09T07:14:05;21.17;;;8.55;;
33954;SDS011;20233;50.804;7.126;2023-10-09T07:16:34;15.63;;;8.07;;
33954;SDS011;20233;50.804;7.126;2023-10-09T07:19:04;12.43;;;7.80;;
33954;SDS011;20233;50.804;7.126;2023-10-09T07:21:56;13.23;;;7.35;;
33954;SDS011;20233;50.804;7.126;2023-10-09T07:24:27;12.73;;;7.47;;
33954;SDS011;20233;50.804;7.126;2023-10-09T07:27:06;9.25;;;6.93;;
33954;SDS011;20233;50.804;7.126;2023-10-09T07:29:35;12.48;;;8.00;;
33954;SDS011;20233;50.804;7.126;2023-10-09T07:32:16;12.90;;;7.70;;
33954;SDS011;20233;50.804;7.126;2023-10-09T07:34:48;11.43;;;7.85;;
33954;SDS011;20233;50.804;7.126;2023-10-09T07:37:21;14.40;;;8.15;;
33954;SDS011;20233;50.804;7.126;2023-10-09T07:39:50;13.53;;;7.20;;
33954;SDS011;20233;50.804;7.126;2023-10-09T07:42:22;14.10;;;7.22;;
33954;SDS011;20233;50.804;7.126;2023-10-09T07:45:09;15.75;;;7.55;;
33954;SDS011;20233;50.804;7.126;2023-10-09T07:47:48;16.90;;;7.68;;
33954;SDS011;20233;50.804;7.126;2023-10-09T07:50:36;12.43;;;7.03;;
33954;SDS011;20233;50.804;7.126;2023-10-09T07:53:09;16.48;;;7.60;;
33954;SDS011;20233;50.804;7.126;2023-10-09T07:55:50;11.30;;;7.45;;
33954;SDS011;20233;50.804;7.126;2023-10-09T07:58:23;15.80;;;7.72;;
33954;SDS011;20233;50.804;7.126;2023-10-09T08:00:52;11.20;;;6.93;;
33954;SDS011;20233;50.804;7.126;2023-10-09T08:03:31;14.90;;;8.20;;
33954;SDS011;20233;50.804;7.126;2023-10-09T08:05:58;14.25;;;7.78;;
33954;SDS011;20233;50.804;7.126;2023-10-09T08:08:43;13.10;;;7.45;;
33954;SDS011;20233;50.804;7.126;2023-10-09T08:11:32;13.65;;;7.53;;
33954;SDS011;20233;50.804;7.126;2023-10-09T08:14:20;12.70;;;7.30;;
33954;SDS011;20233;50.804;7.126;2023-10-09T08:17:01;13.60;;;7.28;;
33954;SDS011;20233;50.804;7.126;2023-10-09T08:19:49;11.90;;;7.03;;
33954;SDS011;20233;50.804;7.126;2023-10-09T08:22:22;12.20;;;6.95;;
33954;SDS011;20233;50.804;7.126;2023-10-09T08:24:49;16.00;;;7.47;;
33954;SDS011;20233;50.804;7.126;2023-10-09T08:27:22;11.73;;;7.63;;
33954;SDS011;20233;50.804;7.126;2023-10-09T08:29:58;14.05;;;7.82;;
33954;SDS011;20233;50.804;7.126;2023-10-09T08:32:42;15.98;;;7.75;;
33954;SDS011;20233;50.804;7.126;2023-10-09T08:35:32;12.27;;;7.32;;
33954;SDS011;20233;50.804;7.126;2023-10-09T08:38:00;16.45;;;7.68;;
33954;SDS011;20233;50.804;7.126;2023-10-09T08:40:37;17.15;;;8.25;;
33954;SDS011;20233;50.804;7.126;2023-10-09T08:43:17;16.83;;;7.82;;
33954;SDS011;20233;50.804;7.126;2023-10-09T08:45:45;15.60;;;7.47;;
33954;SDS011;20233;50.804;7.126;2023-10-09T08:48:19;13.95;;;7.38;;
33954;SDS011;20233;50.804;7.126;2023-10-09T08:50:47;12.88;;;7.45;;
33954;SDS011;20233;50.804;7.126;2023-10-09T08:53:15;12.32;;;6.80;;
33954;SDS011;20233;50.804;7.126;2023-10-09T08:55:41;14.50;;;8.10;;
33954;SDS011;20233;50.804;7.126;2023-10-09T08:58:08;13.80;;;7.45;;
33954;SDS011;20233;50.804;7.126;2023-10-09T09:00:51;11.77;;;7.25;;
33954;SDS011;20233;50.804;7.126;2023-10-09T09:03:20;13.30;;;7.28;;
33954;SDS011;20233;50.804;7.126;2023-10-09T09:05:57;11.45;;;6.25;;
33954;SDS011;20233;50.804;7.126;2023-10-09T09:08:28;14.68;;;6.65;;
33954;SDS011;20233;50.804;7.126;2023-10-09T09:10:59;11.88;;;6.47;;
33954;SDS011;20233;50.804;7.126;2023-10-09T09:16:40;11.23;;;6.13;;
33954;SDS011;20233;50.804;7.126;2023-10-09T09:19:09;14.05;;;6.30;;
33954;SDS011;20233;50.804;7.126;2023-10-09T09:21:38;13.70;;;6.43;;
33954;SDS011;20233;50.804;7.126;2023-10-09T09:24:10;11.38;;;5.70;;
33954;SDS011;20233;50.804;7.126;2023-10-09T09:26:54;10.02;;;6.43;;
33954;SDS011;20233;50.804;7.126;2023-10-09T09:29:43;10.45;;;5.70;;
33954;SDS011;20233;50.804;7.126;2023-10-09T09:32:29;9.93;;;6.03;;
33954;SDS011;20233;50.804;7.126;2023-10-09T09:35:00;14.20;;;6.68;;
33954;SDS011;20233;50.804;7.126;2023-10-09T09:37:29;9.05;;;5.57;;
33954;SDS011;20233;50.804;7.126;2023-10-09T09:40:02;10.65;;;5.50;;
33954;SDS011;20233;50.804;7.126;2023-10-09T09:42:52;13.25;;;5.88;;
33954;SDS011;20233;50.804;7.126;2023-10-09T09:45:21;10.65;;;5.78;;
33954;SDS011;20233;50.804;7.126;2023-10-09T09:47:49;13.18;;;6.05;;
33954;SDS011;20233;50.804;7.126;2023-10-09T09:50:17;10.70;;;5.32;;
33954;SDS011;20233;50.804;7.126;2023-10-09T09:52:49;11.00;;;4.50;;
33954;SDS011;20233;50.804;7.126;2023-10-09T09:55:21;9.73;;;4.82;;
33954;SDS011;20233;50.804;7.126;2023-10-09T09:57:57;9.98;;;4.63;;
33954;SDS011;20233;50.804;7.126;2023-10-09T10:00:31;8.93;;;4.50;;
33954;SDS011;20233;50.804;7.126;2023-10-09T10:03:19;6.90;;;4.13;;
33954;SDS011;20233;50.804;7.126;2023-10-09T10:05:49;9.77;;;3.90;;
33954;SDS011;20233;50.804;7.126;2023-10-09T10:08:17;11.45;;;4.88;;
33954;SDS011;20233;50.804;7.126;2023-10-09T10:10:45;10.52;;;4.95;;
33954;SDS011;20233;50.804;7.126;2023-10-09T10:14:03;10.10;;;3.90;;
33954;SDS011;20233;50.804;7.126;2023-10-09T10:16:07;9.68;;;4.22;;
33954;SDS011;20233;50.804;7.126;2023-10-09T10:19:02;10.02;;;3.90;;
33954;SDS011;20233;50.804;7.126;2023-10-09T10:21:43;11.45;;;3.75;;
33954;SDS011;20233;50.804;7.126;2023-10-09T10:27:38;9.48;;;3.92;;
33954;SDS011;20233;50.804;7.126;2023-10-09T10:35:16;7.10;;;3.75;;
33954;SDS011;20233;50.804;7.126;2023-10-09T10:37:45;10.18;;;3.35;;
33954;SDS011;20233;50.804;7.126;2023-10-09T10:40:25;9.02;;;3.25;;
33954;SDS011;20233;50.804;7.126;2023-10-09T10:43:17;10.82;;;3.30;;
33954;SDS011;20233;50.804;7.126;2023-10-09T10:46:05;6.60;;;2.88;;
33954;SDS011;20233;50.804;7.126;2023-10-09T10:48:49;8.07;;;2.83;;
33954;SDS011;20233;50.804;7.126;2023-10-09T10:51:23;5.93;;;2.75;;
33954;SDS011;20233;50.804;7.126;2023-10-09T10:53:59;8.32;;;3.45;;
33954;SDS011;20233;50.804;7.126;2023-10-09T10:56:46;8.18;;;2.97;;
33954;SDS011;20233;50.804;7.126;2023-10-09T10:59:16;7.70;;;3.47;;
33954;SDS011;20233;50.804;7.126;2023-10-09T11:01:49;6.75;;;2.70;;
33954;SDS011;20233;50.804;7.126;2023-10-09T11:04:19;7.78;;;3.10;;
33954;SDS011;20233;50.804;7.126;2023-10-09T11:06:54;8.27;;;3.47;;
33954;SDS011;20233;50.804;7.126;2023-10-09T11:09:46;8.07;;;3.25;;
33954;SDS011;20233;50.804;7.126;2023-10-09T11:12:46;8.75;;;2.85;;
33954;SDS011;20233;50.804;7.126;2023-10-09T11:15:29;8.23;;;3.22;;
33954;SDS011;20233;50.804;7.126;2023-10-09T11:20:52;7.85;;;3.13;;
33954;SDS011;20233;50.804;7.126;2023-10-09T11:23:31;7.28;;;3.30;;
33954;SDS011;20233;50.804;7.126;2023-10-09T11:26:03;6.63;;;2.90;;
33954;SDS011;20233;50.804;7.126;2023-10-09T11:31:58;8.82;;;3.38;;
33954;SDS011;20233;50.804;7.126;2023-10-09T11:34:25;8.82;;;3.50;;
33954;SDS011;20233;50.804;7.126;2023-10-09T11:37:13;6.57;;;2.78;;
33954;SDS011;20233;50.804;7.126;2023-10-09T11:42:24;6.95;;;2.72;;
33954;SDS011;20233;50.804;7.126;2023-10-09T11:45:21;9.00;;;3.30;;
33954;SDS011;20233;50.804;7.126;2023-10-09T11:47:54;12.13;;;3.75;;
33954;SDS011;20233;50.804;7.126;2023-10-09T11:53:12;8.40;;;3.75;;
33954;SDS011;20233;50.804;7.126;2023-10-09T11:55:50;9.32;;;3.83;;
33954;SDS011;20233;50.804;7.126;2023-10-09T11:58:18;8.00;;;3.67;;
33954;SDS011;20233;50.804;7.126;2023-10-09T12:00:49;8.97;;;3.53;;
33954;SDS011;20233;50.804;7.126;2023-10-09T12:03:16;8.02;;;3.40;;
33954;SDS011;20233;50.804;7.126;2023-10-09T12:05:46;8.45;;;3.50;;
33954;SDS011;20233;50.804;7.126;2023-10-09T12:08:13;8.63;;;3.78;;
33954;SDS011;20233;50.804;7.126;2023-10-09T12:10:41;7.85;;;4.18;;
33954;SDS011;20233;50.804;7.126;2023-10-09T12:13:07;9.35;;;4.00;;
33954;SDS011;20233;50.804;7.126;2023-10-09T12:15:33;11.07;;;3.80;;
33954;SDS011;20233;50.804;7.126;2023-10-09T12:18:11;10.30;;;3.95;;
33954;SDS011;20233;50.804;7.126;2023-10-09T12:20:40;7.15;;;3.83;;
33954;SDS011;20233;50.804;7.126;2023-10-09T12:23:06;8.25;;;4.05;;
33954;SDS011;20233;50.804;7.126;2023-10-09T12:25:33;8.20;;;3.65;;
33954;SDS011;20233;50.804;7.126;2023-10-09T12:28:00;8.65;;;4.15;;
33954;SDS011;20233;50.804;7.126;2023-10-09T12:30:30;9.52;;;3.95;;
33954;SDS011;20233;50.804;7.126;2023-10-09T12:33:03;9.73;;;4.40;;
33954;SDS011;20233;50.804;7.126;2023-10-09T12:35:29;6.53;;;3.30;;
33954;SDS011;20233;50.804;7.126;2023-10-09T12:37:59;5.65;;;3.17;;
33954;SDS011;20233;50.804;7.126;2023-10-09T12:40:25;7.90;;;3.67;;
33954;SDS011;20233;50.804;7.126;2023-10-09T12:42:54;10.95;;;3.60;;
33954;SDS011;20233;50.804;7.126;2023-10-09T12:45:20;8.00;;;3.45;;
33954;SDS011;20233;50.804;7.126;2023-10-09T12:47:55;8.13;;;3.40;;
33954;SDS011;20233;50.804;7.126;2023-10-09T12:50:24;7.63;;;3.00;;
33954;SDS011;20233;50.804;7.126;2023-10-09T12:52:57;6.18;;;2.80;;
33954;SDS011;20233;50.804;7.126;2023-10-09T12:55:35;7.05;;;2.58;;
33954;SDS011;20233;50.804;7.126;2023-10-09T12:58:08;8.18;;;2.90;;
33954;SDS011;20233;50.804;7.126;2023-10-09T13:00:36;12.23;;;3.05;;
33954;SDS011;20233;50.804;7.126;2023-10-09T13:03:08;6.90;;;2.58;;
33954;SDS011;20233;50.804;7.126;2023-10-09T13:05:47;8.10;;;3.90;;
33954;SDS011;20233;50.804;7.126;2023-10-09T13:08:21;6.47;;;2.42;;
33954;SDS011;20233;50.804;7.126;2023-10-09T13:10:51;7.93;;;3.38;;
33954;SDS011;20233;50.804;7.126;2023-10-09T13:13:26;6.07;;;2.95;;
33954;SDS011;20233;50.804;7.126;2023-10-09T13:16:04;8.63;;;2.97;;
33954;SDS011;20233;50.804;7.126;2023-10-09T13:18:32;9.02;;;3.17;;
33954;SDS011;20233;50.804;7.126;2023-10-09T13:20:57;7.43;;;3.15;;
33954;SDS011;20233;50.804;7.126;2023-10-09T13:23:28;7.47;;;2.97;;
33954;SDS011;20233;50.804;7.126;2023-10-09T13:26:03;6.85;;;2.95;;
33954;SDS011;20233;50.804;7.126;2023-10-09T13:28:42;8.82;;;2.90;;
33954;SDS011;20233;50.804;7.126;2023-10-09T13:31:10;7.43;;;3.28;;
33954;SDS011;20233;50.804;7.126;2023-10-09T13:33:39;9.10;;;3.22;;
33954;SDS011;20233;50.804;7.126;2023-10-09T13:36:05;5.95;;;2.88;;
33954;SDS011;20233;50.804;7.126;2023-10-09T13:38:42;6.93;;;3.30;;
33954;SDS011;20233;50.804;7.126;2023-10-09T13:41:09;12.10;;;3.50;;
33954;SDS011;20233;50.804;7.126;2023-10-09T13:43:40;10.38;;;3.55;;
33954;SDS011;20233;50.804;7.126;2023-10-09T13:46:08;7.38;;;3.05;;
33954;SDS011;20233;50.804;7.126;2023-10-09T13:48:34;9.02;;;3.35;;
33954;SDS011;20233;50.804;7.126;2023-10-09T13:51:06;9.85;;;3.67;;
33954;SDS011;20233;50.804;7.126;2023-10-09T13:53:34;10.65;;;3.03;;
33954;SDS011;20233;50.804;7.126;2023-10-09T13:56:16;5.53;;;2.30;;
33954;SDS011;20233;50.804;7.126;2023-10-09T13:58:49;12.50;;;3.05;;
33954;SDS011;20233;50.804;7.126;2023-10-09T14:01:19;10.50;;;3.22;;
33954;SDS011;20233;50.804;7.126;2023-10-09T14:03:56;8.10;;;3.10;;
33954;SDS011;20233;50.804;7.126;2023-10-09T14:06:23;14.02;;;3.17;;
33954;SDS011;20233;50.804;7.126;2023-10-09T14:08:57;12.77;;;3.17;;
33954;SDS011;20233;50.804;7.126;2023-10-09T14:11:23;7.40;;;2.88;;
33954;SDS011;20233;50.804;7.126;2023-10-09T14:13:51;7.93;;;2.92;;
33954;SDS011;20233;50.804;7.126;2023-10-09T14:16:17;6.75;;;3.13;;
33954;SDS011;20233;50.804;7.126;2023-10-09T14:18:52;9.73;;;3.40;;
33954;SDS011;20233;50.804;7.126;2023-10-09T14:21:25;7.68;;;2.97;;
33954;SDS011;20233;50.804;7.126;2023-10-09T14:23:55;7.28;;;3.38;;
33954;SDS011;20233;50.804;7.126;2023-10-09T14:26:25;6.53;;;3.03;;
33954;SDS011;20233;50.804;7.126;2023-10-09T14:31:19;7.45;;;2.47;;
33954;SDS011;20233;50.804;7.126;2023-10-09T14:33:52;8.55;;;3.22;;
33954;SDS011;20233;50.804;7.126;2023-10-09T14:36:19;7.82;;;2.60;;
33954;SDS011;20233;50.804;7.126;2023-10-09T14:38:46;8.40;;;4.10;;
33954;SDS011;20233;50.804;7.126;2023-10-09T14:41:17;10.25;;;3.08;;
33954;SDS011;20233;50.804;7.126;2023-10-09T14:43:48;9.60;;;3.70;;
33954;SDS011;20233;50.804;7.126;2023-10-09T14:46:20;9.43;;;3.60;;
33954;SDS011;20233;50.804;7.126;2023-10-09T14:48:50;11.63;;;3.35;;
33954;SDS011;20233;50.804;7.126;2023-10-09T14:51:20;10.60;;;3.03;;
33954;SDS011;20233;50.804;7.126;2023-10-09T14:53:56;8.02;;;3.38;;
33954;SDS011;20233;50.804;7.126;2023-10-09T14:56:28;7.72;;;3.05;;
33954;SDS011;20233;50.804;7.126;2023-10-09T14:58:55;7.28;;;2.65;;
33954;SDS011;20233;50.804;7.126;2023-10-09T15:01:25;9.13;;;3.70;;
33954;SDS011;20233;50.804;7.126;2023-10-09T15:03:57;9.90;;;4.18;;
33954;SDS011;20233;50.804;7.126;2023-10-09T15:06:24;9.02;;;3.38;;
33954;SDS011;20233;50.804;7.126;2023-10-09T15:08:58;7.78;;;4.15;;
33954;SDS011;20233;50.804;7.126;2023-10-09T15:11:34;8.73;;;3.60;;
33954;SDS011;20233;50.804;7.126;2023-10-09T15:14:03;7.38;;;3.67;;
33954;SDS011;20233;50.804;7.126;2023-10-09T15:16:31;8.25;;;3.70;;
33954;SDS011;20233;50.804;7.126;2023-10-09T15:18:58;7.32;;;3.47;;
33954;SDS011;20233;50.804;7.126;2023-10-09T15:21:27;11.27;;;3.20;;
33954;SDS011;20233;50.804;7.126;2023-10-09T15:23:55;10.70;;;3.80;;
33954;SDS011;20233;50.804;7.126;2023-10-09T15:26:21;7.68;;;3.30;;
33954;SDS011;20233;50.804;7.126;2023-10-09T15:28:49;8.25;;;3.17;;
33954;SDS011;20233;50.804;7.126;2023-10-09T15:31:16;12.35;;;4.20;;
33954;SDS011;20233;50.804;7.126;2023-10-09T15:33:42;11.25;;;3.67;;
33954;SDS011;20233;50.804;7.126;2023-10-09T15:36:14;8.52;;;3.45;;
33954;SDS011;20233;50.804;7.126;2023-10-09T15:38:45;8.40;;;4.28;;
33954;SDS011;20233;50.804;7.126;2023-10-09T15:41:12;5.60;;;3.92;;
33954;SDS011;20233;50.804;7.126;2023-10-09T15:43:40;9.07;;;4.10;;
33954;SDS011;20233;50.804;7.126;2023-10-09T15:46:10;8.18;;;4.45;;